Time;durP1;ratioP1;P1;durP2;ratioP2;P2;SDS_P1;SDS_P2;PMS_P1;PMS_P2;Temp;Humidity;BMP_temperature;BMP_pressure;BME280_temperature;BME280_humidity;BME280_pressure;Samples;Min_cycle;Max_cycle;Signal;HPM_P1;HPM_P2
2022/08/20 00:01:00;;;;;;;21.10;10.70;;;;;;;;;;5114894;28;20038;-79
2022/08/20 00:03:33;;;;;;;22.60;11.60;;;;;;;;;;5114891;28;20024;-78
2022/08/20 00:06:01;;;;;;;17.73;10.25;;;;;;;;;;5114691;28;20019;-79
2022/08/20 00:08:28;;;;;;;20.42;10.98;;;;;;;;;;5104831;28;20063;-78
2022/08/20 00:10:55;;;;;;;21.20;11.98;;;;;;;;;;5094262;28;20024;-78
2022/08/20 00:13:23;;;;;;;22.60;12.05;;;;;;;;;;5093924;28;20043;-79
2022/08/20 00:15:49;;;;;;;25.65;12.95;;;;;;;;;;5094559;28;20016;-78
2022/08/20 00:18:15;;;;;;;17.88;10.10;;;;;;;;;;5094342;28;20497;-79
2022/08/20 00:20:44;;;;;;;17.05;9.95;;;;;;;;;;5093884;28;20082;-79
2022/08/20 00:23:10;;;;;;;22.83;11.32;;;;;;;;;;5093877;28;20028;-79
2022/08/20 00:25:36;;;;;;;21.30;11.30;;;;;;;;;;5093892;28;20432;-79
2022/08/20 00:28:03;;;;;;;21.85;11.30;;;;;;;;;;5093614;28;20032;-78
2022/08/20 00:30:31;;;;;;;17.85;10.30;;;;;;;;;;5094260;28;20028;-79
2022/08/20 00:33:01;;;;;;;21.02;11.73;;;;;;;;;;5093021;28;20035;-78
2022/08/20 00:35:29;;;;;;;23.42;10.93;;;;;;;;;;5093963;28;20019;-78
2022/08/20 00:37:55;;;;;;;21.45;11.95;;;;;;;;;;5075174;28;20153;-79
2022/08/20 00:40:27;;;;;;;20.45;11.75;;;;;;;;;;5093573;28;20035;-78
2022/08/20 00:42:56;;;;;;;25.83;13.02;;;;;;;;;;5093343;28;20526;-78
2022/08/20 00:45:23;;;;;;;21.15;11.68;;;;;;;;;;5093451;28;20103;-79
2022/08/20 00:47:50;;;;;;;19.42;11.52;;;;;;;;;;5110669;28;20034;-79
2022/08/20 00:50:20;;;;;;;23.60;13.20;;;;;;;;;;5113665;28;20023;-79
2022/08/20 00:52:48;;;;;;;20.08;12.05;;;;;;;;;;5113914;28;20020;-79
2022/08/20 00:55:15;;;;;;;20.88;11.45;;;;;;;;;;5113811;28;20027;-79
2022/08/20 00:57:42;;;;;;;22.02;12.43;;;;;;;;;;5095013;28;20502;-79
2022/08/20 01:00:14;;;;;;;23.00;12.32;;;;;;;;;;5113695;28;20023;-79
2022/08/20 01:02:41;;;;;;;19.65;11.27;;;;;;;;;;5113605;28;20024;-76
2022/08/20 01:05:08;;;;;;;24.08;11.65;;;;;;;;;;5113638;28;20034;-78
2022/08/20 01:07:35;;;;;;;25.30;12.95;;;;;;;;;;5113635;28;20351;-79
2022/08/20 01:10:02;;;;;;;26.30;13.07;;;;;;;;;;5113487;28;20414;-78
2022/08/20 01:12:29;;;;;;;21.10;11.70;;;;;;;;;;5113813;28;20126;-78
2022/08/20 01:14:57;;;;;;;18.42;11.18;;;;;;;;;;5113403;28;20032;-79
2022/08/20 01:17:24;;;;;;;20.80;10.43;;;;;;;;;;5094933;28;20111;-78
2022/08/20 01:19:56;;;;;;;22.67;11.68;;;;;;;;;;5113294;28;20073;-78
2022/08/20 01:25:15;;;;;;;21.63;11.38;;;;;;;;;;5113036;28;20440;-78
2022/08/20 01:27:43;;;;;;;19.42;10.82;;;;;;;;;;5112874;28;20055;-78
2022/08/20 01:30:09;;;;;;;28.67;14.02;;;;;;;;;;5113303;28;20046;-78
2022/08/20 01:32:35;;;;;;;23.27;11.30;;;;;;;;;;5113054;28;20106;-79
2022/08/20 01:35:01;;;;;;;19.73;11.85;;;;;;;;;;5095202;28;20430;-78
2022/08/20 01:37:27;;;;;;;19.30;11.07;;;;;;;;;;5113162;28;20028;-78
2022/08/20 01:39:53;;;;;;;23.42;11.32;;;;;;;;;;5113078;28;20027;-78
2022/08/20 01:42:29;;;;;;;24.10;12.23;;;;;;;;;;5112943;28;20430;-78
2022/08/20 01:44:56;;;;;;;33.47;14.48;;;;;;;;;;5112959;28;20165;-78
2022/08/20 01:47:22;;;;;;;28.45;13.52;;;;;;;;;;5112809;28;20042;-78
2022/08/20 01:49:50;;;;;;;23.40;11.82;;;;;;;;;;5094526;28;20549;-78
2022/08/20 01:52:42;;;;;;;19.55;11.73;;;;;;;;;;5112773;28;20024;-79
2022/08/20 01:55:09;;;;;;;18.13;11.52;;;;;;;;;;5110837;28;20078;-78
2022/08/20 01:57:35;;;;;;;24.10;12.60;;;;;;;;;;5096651;28;20075;-79
2022/08/20 02:00:03;;;;;;;30.50;12.82;;;;;;;;;;5092826;28;20059;-79
2022/08/20 02:02:29;;;;;;;24.90;12.85;;;;;;;;;;5092259;28;20131;-79
2022/08/20 02:04:59;;;;;;;21.40;11.90;;;;;;;;;;5092321;28;20027;-79
2022/08/20 02:07:25;;;;;;;24.15;12.13;;;;;;;;;;5092294;28;20020;-79
2022/08/20 02:09:52;;;;;;;21.92;10.93;;;;;;;;;;5092309;28;20024;-78
2022/08/20 02:12:18;;;;;;;20.77;11.40;;;;;;;;;;5093240;28;20051;-78
2022/08/20 02:14:46;;;;;;;25.92;13.95;;;;;;;;;;5092334;28;20028;-78
2022/08/20 02:17:13;;;;;;;20.77;11.40;;;;;;;;;;5092359;28;20043;-79
2022/08/20 02:19:45;;;;;;;20.42;12.30;;;;;;;;;;5092364;28;20020;-78
2022/08/20 02:22:17;;;;;;;23.95;11.55;;;;;;;;;;5092246;28;20103;-78
2022/08/20 02:24:43;;;;;;;27.77;12.50;;;;;;;;;;5092178;28;20059;-79
2022/08/20 02:27:09;;;;;;;24.30;12.20;;;;;;;;;;5092002;28;20466;-79
2022/08/20 02:29:36;;;;;;;25.45;11.93;;;;;;;;;;5092014;28;20035;-79
2022/08/20 02:32:02;;;;;;;30.38;12.27;;;;;;;;;;5091852;28;20103;-79
2022/08/20 02:34:28;;;;;;;24.65;12.45;;;;;;;;;;5091837;28;20020;-79
2022/08/20 02:36:54;;;;;;;28.33;13.30;;;;;;;;;;5091861;28;20085;-79
2022/08/20 02:39:20;;;;;;;22.38;12.38;;;;;;;;;;5091988;28;20032;-79
2022/08/20 02:41:46;;;;;;;26.52;13.68;;;;;;;;;;5092020;28;20470;-78
2022/08/20 02:44:12;;;;;;;27.30;14.02;;;;;;;;;;5073934;28;20489;-78
2022/08/20 02:46:38;;;;;;;28.20;14.18;;;;;;;;;;5084585;28;20033;-78
2022/08/20 02:49:04;;;;;;;28.95;13.95;;;;;;;;;;5071857;28;20031;-79
2022/08/20 02:51:30;;;;;;;28.98;13.88;;;;;;;;;;5072024;28;20039;-79
2022/08/20 02:53:56;;;;;;;28.35;14.43;;;;;;;;;;5071701;28;20351;-79
2022/08/20 02:56:22;;;;;;;29.95;13.90;;;;;;;;;;5080111;28;20064;-79
2022/08/20 02:58:48;;;;;;;28.33;13.85;;;;;;;;;;5095764;28;20028;-78
2022/08/20 03:01:15;;;;;;;22.75;12.45;;;;;;;;;;5094176;28;20058;-79
2022/08/20 03:03:42;;;;;;;23.63;13.25;;;;;;;;;;5095784;28;20027;-78
2022/08/20 03:06:09;;;;;;;23.00;10.73;;;;;;;;;;5095389;28;20024;-79
2022/08/20 03:08:35;;;;;;;20.92;11.30;;;;;;;;;;5095308;28;20062;-78
2022/08/20 03:11:02;;;;;;;21.90;10.63;;;;;;;;;;5095711;28;20039;-79
2022/08/20 03:13:28;;;;;;;14.73;9.38;;;;;;;;;;5095169;28;20047;-79
2022/08/20 03:15:55;;;;;;;20.70;10.13;;;;;;;;;;5077014;28;20431;-79
2022/08/20 03:18:22;;;;;;;16.50;9.55;;;;;;;;;;5095360;28;20020;-79
2022/08/20 03:20:48;;;;;;;19.17;10.32;;;;;;;;;;5095099;28;20090;-78
2022/08/20 03:23:15;;;;;;;18.35;10.20;;;;;;;;;;5094297;28;20077;-79
2022/08/20 03:25:41;;;;;;;20.23;12.20;;;;;;;;;;5115439;28;20064;-79
2022/08/20 03:28:07;;;;;;;20.52;11.35;;;;;;;;;;5115463;28;20058;-79
2022/08/20 03:30:33;;;;;;;20.13;10.27;;;;;;;;;;5115409;28;20023;-79
2022/08/20 03:32:59;;;;;;;16.50;9.88;;;;;;;;;;5115327;28;20020;-79
2022/08/20 03:35:26;;;;;;;21.00;9.68;;;;;;;;;;5115764;28;20446;-79
2022/08/20 03:37:52;;;;;;;15.80;8.48;;;;;;;;;;5115143;28;20134;-79
2022/08/20 03:40:21;;;;;;;13.80;7.85;;;;;;;;;;5115139;28;20024;-79
2022/08/20 03:42:47;;;;;;;16.40;7.20;;;;;;;;;;5115656;28;20045;-79
2022/08/20 03:45:13;;;;;;;12.57;6.72;;;;;;;;;;5115116;28;20355;-79
2022/08/20 03:47:40;;;;;;;13.98;7.25;;;;;;;;;;5113684;28;20032;-79
2022/08/20 03:50:07;;;;;;;13.25;6.28;;;;;;;;;;5114948;28;20026;-78
2022/08/20 03:52:33;;;;;;;11.13;6.13;;;;;;;;;;5114061;28;20511;-78
2022/08/20 03:54:59;;;;;;;9.85;6.47;;;;;;;;;;5114920;28;20106;-78
2022/08/20 03:57:26;;;;;;;14.82;6.18;;;;;;;;;;5114582;28;20129;-78
2022/08/20 03:59:52;;;;;;;12.40;6.03;;;;;;;;;;5115023;28;20102;-78
2022/08/20 04:02:18;;;;;;;9.02;5.53;;;;;;;;;;5115110;28;20051;-78
2022/08/20 04:04:44;;;;;;;10.55;5.43;;;;;;;;;;5114831;28;20031;-78
2022/08/20 04:07:24;;;;;;;14.77;6.13;;;;;;;;;;5113354;28;20023;-78
2022/08/20 04:09:51;;;;;;;11.23;5.03;;;;;;;;;;5114605;28;20512;-78
2022/08/20 04:12:17;;;;;;;11.27;5.45;;;;;;;;;;5114951;28;20024;-78
2022/08/20 04:14:43;;;;;;;11.18;5.43;;;;;;;;;;5114483;28;20089;-78
2022/08/20 04:17:11;;;;;;;10.25;5.15;;;;;;;;;;5114974;28;20027;-78
2022/08/20 04:19:37;;;;;;;15.75;5.65;;;;;;;;;;5114996;28;20023;-78
2022/08/20 04:22:03;;;;;;;10.90;5.88;;;;;;;;;;5114354;28;20023;-78
2022/08/20 04:24:30;;;;;;;12.25;6.13;;;;;;;;;;5114481;28;20469;-78
2022/08/20 04:26:57;;;;;;;13.27;5.20;;;;;;;;;;5114269;28;20096;-78
2022/08/20 04:29:24;;;;;;;12.80;6.10;;;;;;;;;;5114316;28;20450;-77
2022/08/20 04:31:51;;;;;;;12.52;5.78;;;;;;;;;;5114196;28;20016;-78
2022/08/20 04:34:18;;;;;;;11.45;5.38;;;;;;;;;;5114660;28;20111;-78
2022/08/20 04:36:46;;;;;;;9.15;4.75;;;;;;;;;;5114372;28;20020;-78
2022/08/20 04:39:12;;;;;;;8.95;5.13;;;;;;;;;;5113990;28;20035;-78
2022/08/20 04:41:38;;;;;;;9.77;4.95;;;;;;;;;;5114380;28;20035;-78
2022/08/20 04:44:04;;;;;;;12.38;5.25;;;;;;;;;;5113860;28;20024;-78
2022/08/20 04:46:31;;;;;;;11.20;5.28;;;;;;;;;;5107846;28;20024;-78
2022/08/20 04:48:59;;;;;;;12.73;6.03;;;;;;;;;;5094334;28;20016;-78
2022/08/20 04:51:25;;;;;;;13.65;6.28;;;;;;;;;;5093566;28;20100;-78
2022/08/20 04:53:52;;;;;;;9.07;5.20;;;;;;;;;;5093553;28;20474;-78
2022/08/20 04:56:22;;;;;;;12.00;5.15;;;;;;;;;;5074785;28;20051;-78
2022/08/20 04:58:49;;;;;;;7.45;5.05;;;;;;;;;;5093370;28;20034;-78
2022/08/20 05:01:16;;;;;;;11.52;5.35;;;;;;;;;;5093219;28;20024;-78
2022/08/20 05:03:42;;;;;;;13.00;4.65;;;;;;;;;;5093622;28;20407;-78
2022/08/20 05:06:09;;;;;;;8.20;4.65;;;;;;;;;;5109799;28;20039;-78
2022/08/20 05:08:36;;;;;;;9.80;5.03;;;;;;;;;;5113279;28;20030;-78
2022/08/20 05:11:02;;;;;;;15.48;5.75;;;;;;;;;;5113463;28;20019;-78
2022/08/20 05:13:28;;;;;;;12.00;4.38;;;;;;;;;;5113489;28;20028;-78
2022/08/20 05:15:55;;;;;;;8.23;4.25;;;;;;;;;;5113872;28;20043;-78
2022/08/20 05:18:23;;;;;;;9.73;4.30;;;;;;;;;;5113450;28;20118;-78
2022/08/20 05:20:49;;;;;;;8.93;4.50;;;;;;;;;;5113438;28;20039;-78
2022/08/20 05:23:16;;;;;;;6.93;4.93;;;;;;;;;;5112661;28;20027;-78
2022/08/20 05:25:43;;;;;;;10.55;4.68;;;;;;;;;;5093008;28;20084;-78
2022/08/20 05:28:11;;;;;;;11.80;4.90;;;;;;;;;;5094124;28;20418;-78
2022/08/20 05:30:39;;;;;;;13.45;5.78;;;;;;;;;;5094755;28;20020;-78
2022/08/20 05:33:05;;;;;;;9.75;5.20;;;;;;;;;;5113258;28;20099;-78
2022/08/20 05:35:33;;;;;;;9.57;5.43;;;;;;;;;;5112955;28;20020;-78
2022/08/20 05:38:00;;;;;;;15.07;5.65;;;;;;;;;;5112920;28;20415;-78
2022/08/20 05:40:26;;;;;;;8.30;4.72;;;;;;;;;;5112985;28;20405;-78
2022/08/20 05:42:53;;;;;;;13.15;5.97;;;;;;;;;;5113122;28;20024;-77
2022/08/20 05:45:20;;;;;;;13.05;5.30;;;;;;;;;;5113131;28;20047;-78
2022/08/20 05:47:47;;;;;;;12.18;5.20;;;;;;;;;;5113033;28;20024;-78
2022/08/20 05:50:13;;;;;;;8.57;5.00;;;;;;;;;;5094732;28;20454;-77
2022/08/20 05:52:40;;;;;;;11.70;5.05;;;;;;;;;;5111182;28;20027;-78
2022/08/20 05:55:07;;;;;;;9.65;5.30;;;;;;;;;;5112545;28;20102;-78
2022/08/20 05:57:33;;;;;;;10.27;5.68;;;;;;;;;;5109127;28;20483;-79
2022/08/20 06:00:01;;;;;;;10.95;5.47;;;;;;;;;;5092393;28;20024;-78
2022/08/20 06:05:12;;;;;;;10.77;5.50;;;;;;;;;;5092628;28;20435;-78
2022/08/20 06:07:38;;;;;;;11.10;5.95;;;;;;;;;;5092186;28;20063;-78
2022/08/20 06:10:05;;;;;;;9.55;4.95;;;;;;;;;;5092577;28;20020;-78
2022/08/20 06:12:31;;;;;;;11.65;5.70;;;;;;;;;;5093283;28;20028;-78
2022/08/20 06:14:57;;;;;;;9.55;5.10;;;;;;;;;;5092608;28;20039;-78
2022/08/20 06:17:24;;;;;;;9.15;5.07;;;;;;;;;;5092541;28;20024;-78
2022/08/20 06:19:50;;;;;;;13.30;5.60;;;;;;;;;;5092501;28;20031;-80
2022/08/20 06:22:16;;;;;;;15.85;6.45;;;;;;;;;;5094385;28;20023;-80
2022/08/20 06:24:43;;;;;;;14.00;6.40;;;;;;;;;;5113012;28;20176;-79
2022/08/20 06:27:13;;;;;;;11.95;5.97;;;;;;;;;;5094093;28;20339;-80
2022/08/20 06:29:39;;;;;;;9.43;6.10;;;;;;;;;;5112881;28;20016;-79
2022/08/20 06:32:05;;;;;;;14.07;6.43;;;;;;;;;;5116624;28;20022;-80
2022/08/20 06:34:31;;;;;;;11.27;6.32;;;;;;;;;;5097960;28;20132;-80
2022/08/20 06:36:58;;;;;;;12.93;7.18;;;;;;;;;;5098052;28;20027;-80
2022/08/20 06:39:25;;;;;;;15.20;6.75;;;;;;;;;;5116411;28;20107;-80
2022/08/20 06:41:51;;;;;;;15.63;7.53;;;;;;;;;;5097919;28;20164;-80
2022/08/20 06:44:17;;;;;;;14.15;7.90;;;;;;;;;;5116205;28;20160;-80
2022/08/20 06:46:44;;;;;;;12.95;7.47;;;;;;;;;;5111027;28;20028;-81
2022/08/20 06:49:11;;;;;;;16.30;8.40;;;;;;;;;;5116149;28;20011;-80
2022/08/20 06:51:37;;;;;;;14.50;9.35;;;;;;;;;;5097749;28;20522;-80
2022/08/20 06:54:04;;;;;;;19.55;9.43;;;;;;;;;;5097902;28;20012;-80
2022/08/20 06:56:30;;;;;;;16.45;9.52;;;;;;;;;;5097632;28;20119;-80
2022/08/20 06:58:56;;;;;;;18.58;9.68;;;;;;;;;;5116294;28;20074;-80
2022/08/20 07:01:23;;;;;;;20.92;9.45;;;;;;;;;;5116450;28;20446;-80
2022/08/20 07:03:50;;;;;;;19.58;8.27;;;;;;;;;;5116200;28;20071;-80
2022/08/20 07:06:17;;;;;;;14.93;8.30;;;;;;;;;;5115981;28;20080;-80
2022/08/20 07:08:43;;;;;;;13.68;7.72;;;;;;;;;;5097342;28;20034;-79
2022/08/20 07:11:11;;;;;;;15.90;6.50;;;;;;;;;;5116283;28;20031;-80
2022/08/20 07:13:39;;;;;;;14.48;6.68;;;;;;;;;;5098072;28;20051;-80
2022/08/20 07:16:05;;;;;;;12.10;6.82;;;;;;;;;;5115844;28;20023;-80
2022/08/20 07:18:31;;;;;;;11.57;4.57;;;;;;;;;;5115769;28;20462;-80
2022/08/20 07:20:58;;;;;;;8.80;3.15;;;;;;;;;;5115664;28;20093;-80
2022/08/20 07:23:25;;;;;;;10.57;3.60;;;;;;;;;;5113643;28;20462;-80
2022/08/20 07:25:51;;;;;;;11.27;3.88;;;;;;;;;;5076726;28;20052;-80
2022/08/20 07:28:19;;;;;;;15.55;4.05;;;;;;;;;;5094793;28;20053;-79
2022/08/20 07:33:31;;;;;;;9.13;3.70;;;;;;;;;;5105392;28;20077;-81
2022/08/20 07:35:58;;;;;;;17.77;5.13;;;;;;;;;;5096998;28;20034;-88
2022/08/20 07:38:25;;;;;;;11.45;4.57;;;;;;;;;;5115321;28;20512;-81
2022/08/20 07:40:52;;;;;;;13.65;4.05;;;;;;;;;;5113567;28;20055;-81
2022/08/20 07:43:18;;;;;;;11.98;4.55;;;;;;;;;;5096924;28;20027;-81
2022/08/20 07:45:45;;;;;;;12.77;4.00;;;;;;;;;;5096963;28;20031;-80
2022/08/20 07:48:12;;;;;;;15.45;5.07;;;;;;;;;;5115068;28;20035;-81
2022/08/20 07:50:38;;;;;;;12.23;4.18;;;;;;;;;;5096701;28;20072;-81
2022/08/20 07:53:04;;;;;;;12.55;4.10;;;;;;;;;;5096839;28;20019;-81
2022/08/20 07:55:31;;;;;;;15.70;4.60;;;;;;;;;;5096667;28;20028;-85
2022/08/20 07:57:59;;;;;;;10.45;4.35;;;;;;;;;;5096533;28;20470;-81
2022/08/20 08:00:26;;;;;;;14.90;4.22;;;;;;;;;;5096735;28;20031;-81
2022/08/20 08:02:52;;;;;;;14.50;4.55;;;;;;;;;;5115195;28;20028;-82
2022/08/20 08:05:18;;;;;;;8.63;4.00;;;;;;;;;;5114943;28;20050;-81
2022/08/20 08:07:45;;;;;;;14.10;3.38;;;;;;;;;;5096870;28;20105;-81
2022/08/20 08:10:13;;;;;;;10.90;4.40;;;;;;;;;;5113211;28;20024;-81
2022/08/20 08:12:41;;;;;;;11.80;3.88;;;;;;;;;;5115088;28;20028;-81
2022/08/20 08:15:09;;;;;;;10.30;3.25;;;;;;;;;;5114680;28;20024;-81
2022/08/20 08:17:36;;;;;;;10.35;3.10;;;;;;;;;;5114753;28;20088;-82
2022/08/20 08:20:03;;;;;;;12.57;3.20;;;;;;;;;;5096143;28;20023;-79
2022/08/20 08:22:31;;;;;;;16.90;3.50;;;;;;;;;;5114487;28;20098;-80
2022/08/20 08:25:01;;;;;;;10.70;2.83;;;;;;;;;;5095931;28;20028;-79
2022/08/20 08:27:31;;;;;;;9.88;2.22;;;;;;;;;;5114424;28;20051;-79
2022/08/20 08:29:57;;;;;;;10.00;2.22;;;;;;;;;;5114187;28;20024;-79
2022/08/20 08:32:23;;;;;;;10.77;1.90;;;;;;;;;;5114346;28;20478;-79
2022/08/20 08:34:49;;;;;;;11.05;1.98;;;;;;;;;;5114085;28;20016;-79
2022/08/20 08:37:15;;;;;;;10.40;1.83;;;;;;;;;;5114160;28;20027;-80
2022/08/20 08:39:41;;;;;;;11.63;1.73;;;;;;;;;;5096075;28;20127;-79
2022/08/20 08:42:20;;;;;;;9.32;2.28;;;;;;;;;;5114272;28;20119;-80
2022/08/20 08:44:47;;;;;;;8.82;2.22;;;;;;;;;;5114026;28;20077;-81
2022/08/20 08:47:25;;;;;;;12.68;2.10;;;;;;;;;;5114047;28;20020;-81
2022/08/20 08:49:51;;;;;;;11.20;2.65;;;;;;;;;;5093259;28;20419;-81
2022/08/20 08:52:28;;;;;;;9.35;2.10;;;;;;;;;;5093199;28;20385;-80
2022/08/20 08:54:56;;;;;;;10.93;2.22;;;;;;;;;;5092219;28;20062;-81
2022/08/20 08:57:23;;;;;;;7.55;1.90;;;;;;;;;;5105543;28;20075;-80
2022/08/20 08:59:54;;;;;;;11.13;2.08;;;;;;;;;;5113908;28;20031;-80
2022/08/20 09:02:21;;;;;;;12.23;1.95;;;;;;;;;;5113684;28;20085;-81
2022/08/20 09:04:50;;;;;;;11.77;2.00;;;;;;;;;;5095219;28;20031;-80
2022/08/20 09:07:16;;;;;;;6.70;2.22;;;;;;;;;;5113654;28;20509;-80
2022/08/20 09:09:45;;;;;;;16.35;2.00;;;;;;;;;;5113604;28;20024;-80
2022/08/20 09:12:17;;;;;;;11.38;2.33;;;;;;;;;;5113318;28;20012;-82
2022/08/20 09:14:45;;;;;;;12.70;2.38;;;;;;;;;;5098972;27;20035;-82
2022/08/20 09:17:11;;;;;;;12.95;1.95;;;;;;;;;;5084377;28;20028;-82
2022/08/20 09:19:37;;;;;;;6.88;1.70;;;;;;;;;;5091399;28;20032;-81
2022/08/20 09:22:07;;;;;;;11.52;1.75;;;;;;;;;;5095383;28;21761;-81
2022/08/20 09:24:33;;;;;;;10.35;1.60;;;;;;;;;;5113656;27;20023;-81
2022/08/20 09:26:59;;;;;;;9.20;1.65;;;;;;;;;;5133862;27;20364;-80
2022/08/20 09:29:25;;;;;;;6.13;1.58;;;;;;;;;;5118630;27;20572;-82
2022/08/20 09:31:51;;;;;;;10.48;1.40;;;;;;;;;;5094684;28;20031;-82
2022/08/20 09:34:17;;;;;;;11.07;2.10;;;;;;;;;;5112831;28;20038;-82
2022/08/20 09:36:43;;;;;;;7.57;1.40;;;;;;;;;;5113286;28;20024;-82
2022/08/20 09:39:09;;;;;;;8.85;1.55;;;;;;;;;;5094620;28;20046;-82
2022/08/20 09:41:35;;;;;;;7.93;1.42;;;;;;;;;;5112946;28;20024;-82
2022/08/20 09:44:01;;;;;;;7.80;1.27;;;;;;;;;;5113257;28;20016;-82
2022/08/20 09:46:27;;;;;;;9.93;1.42;;;;;;;;;;5112933;28;20539;-82
2022/08/20 09:48:54;;;;;;;6.68;1.38;;;;;;;;;;5113936;28;20354;-80
2022/08/20 09:51:20;;;;;;;16.75;1.73;;;;;;;;;;5133435;28;20019;-83
2022/08/20 09:53:47;;;;;;;7.40;1.60;;;;;;;;;;5114881;28;20048;-81
2022/08/20 09:56:13;;;;;;;7.97;1.05;;;;;;;;;;5133017;28;20019;-83
2022/08/20 09:58:39;;;;;;;5.72;1.40;;;;;;;;;;5115118;28;20023;-81
2022/08/20 10:01:08;;;;;;;6.28;1.30;;;;;;;;;;5133985;28;20039;-81
2022/08/20 10:03:34;;;;;;;6.50;1.45;;;;;;;;;;5133520;27;20468;-83
2022/08/20 10:06:00;;;;;;;4.57;1.15;;;;;;;;;;5137894;27;20023;-83
2022/08/20 10:08:27;;;;;;;6.97;1.35;;;;;;;;;;5118522;27;20032;-83
2022/08/20 10:10:53;;;;;;;7.32;1.85;;;;;;;;;;5107570;28;20059;-82
2022/08/20 10:13:19;;;;;;;7.85;1.35;;;;;;;;;;5098632;28;20114;-82
2022/08/20 10:15:45;;;;;;;8.85;1.30;;;;;;;;;;5098518;28;20012;-81
2022/08/20 10:18:11;;;;;;;6.68;1.30;;;;;;;;;;5116510;28;20080;-82
2022/08/20 10:20:37;;;;;;;7.35;1.42;;;;;;;;;;5116692;28;20031;-81
2022/08/20 10:23:04;;;;;;;6.80;1.55;;;;;;;;;;5117065;28;20024;-82
2022/08/20 10:25:30;;;;;;;8.85;1.40;;;;;;;;;;5098559;28;20027;-84
2022/08/20 10:27:56;;;;;;;10.00;1.65;;;;;;;;;;5116655;28;20080;-83
2022/08/20 10:30:22;;;;;;;7.75;1.55;;;;;;;;;;5116759;28;20023;-84
2022/08/20 10:32:48;;;;;;;9.63;1.27;;;;;;;;;;5116589;28;20028;-82
2022/08/20 10:35:14;;;;;;;11.98;2.00;;;;;;;;;;5117156;28;20020;-82
2022/08/20 10:37:40;;;;;;;8.48;1.63;;;;;;;;;;5098351;28;20078;-82
2022/08/20 10:40:07;;;;;;;13.27;1.95;;;;;;;;;;5116737;28;20450;-81
2022/08/20 10:42:33;;;;;;;7.32;1.35;;;;;;;;;;5116499;28;20032;-81
2022/08/20 10:44:59;;;;;;;5.20;1.20;;;;;;;;;;5116506;28;20025;-81
2022/08/20 10:47:26;;;;;;;5.72;1.38;;;;;;;;;;5119591;27;20458;-81
2022/08/20 10:49:53;;;;;;;4.90;1.15;;;;;;;;;;5121594;27;20019;-80
2022/08/20 10:52:20;;;;;;;8.65;1.30;;;;;;;;;;5116145;28;20023;-81
2022/08/20 10:54:46;;;;;;;11.40;1.45;;;;;;;;;;5116418;28;20019;-81
2022/08/20 10:57:13;;;;;;;6.05;1.30;;;;;;;;;;5109904;28;20048;-81
2022/08/20 10:59:40;;;;;;;7.80;1.45;;;;;;;;;;5095518;28;20456;-79
2022/08/20 11:02:06;;;;;;;10.00;1.63;;;;;;;;;;5095640;28;20040;-81
2022/08/20 11:04:32;;;;;;;10.57;1.65;;;;;;;;;;5095123;28;20028;-80
2022/08/20 11:06:58;;;;;;;4.88;1.23;;;;;;;;;;5095047;28;20035;-80
2022/08/20 11:09:24;;;;;;;7.80;1.27;;;;;;;;;;5095603;28;20021;-81
2022/08/20 11:11:50;;;;;;;5.60;1.40;;;;;;;;;;5095385;28;20020;-82
2022/08/20 11:14:16;;;;;;;8.93;2.20;;;;;;;;;;5095242;28;20051;-82
2022/08/20 11:16:42;;;;;;;6.13;1.20;;;;;;;;;;5094679;28;20032;-80
2022/08/20 11:19:08;;;;;;;12.73;1.40;;;;;;;;;;5095045;28;20028;-80
2022/08/20 11:21:34;;;;;;;6.68;1.23;;;;;;;;;;5095132;28;20029;-80
2022/08/20 11:24:00;;;;;;;9.57;1.40;;;;;;;;;;5073008;28;20459;-80
2022/08/20 11:26:26;;;;;;;11.48;2.13;;;;;;;;;;5074231;28;20029;-79
2022/08/20 11:28:52;;;;;;;8.13;1.17;;;;;;;;;;5056478;28;20032;-80
2022/08/20 11:31:18;;;;;;;12.10;2.38;;;;;;;;;;5074777;28;20036;-80
2022/08/20 11:33:44;;;;;;;10.75;2.30;;;;;;;;;;5074631;28;20514;-79
2022/08/20 11:36:10;;;;;;;7.85;1.42;;;;;;;;;;5074376;28;20128;-80
2022/08/20 11:38:36;;;;;;;8.20;1.70;;;;;;;;;;5074707;28;20062;-80
2022/08/20 11:41:02;;;;;;;7.13;1.50;;;;;;;;;;5074625;28;20104;-80
2022/08/20 11:43:28;;;;;;;11.82;1.48;;;;;;;;;;5074551;28;20020;-79
2022/08/20 11:45:55;;;;;;;7.68;1.42;;;;;;;;;;5074615;28;20086;-80
2022/08/20 11:48:21;;;;;;;10.50;2.42;;;;;;;;;;5074298;28;20020;-80
2022/08/20 11:50:48;;;;;;;6.40;1.42;;;;;;;;;;5074463;28;20348;-80
2022/08/20 11:53:14;;;;;;;9.60;1.45;;;;;;;;;;5074294;28;20027;-80
2022/08/20 11:55:40;;;;;;;8.02;1.70;;;;;;;;;;5074574;28;20028;-81
2022/08/20 11:58:06;;;;;;;13.93;1.73;;;;;;;;;;5074076;28;20049;-80
2022/08/20 12:00:32;;;;;;;7.55;1.40;;;;;;;;;;5074450;28;20392;-80
2022/08/20 12:02:58;;;;;;;6.57;2.13;;;;;;;;;;5056329;28;20025;-80
2022/08/20 12:05:26;;;;;;;8.77;1.52;;;;;;;;;;5074135;28;20082;-80
2022/08/20 12:07:52;;;;;;;11.18;1.90;;;;;;;;;;5078671;28;20166;-81
2022/08/20 12:10:18;;;;;;;9.00;1.67;;;;;;;;;;5094856;28;20024;-80
2022/08/20 12:12:44;;;;;;;7.22;1.50;;;;;;;;;;5076689;28;20048;-80
2022/08/20 12:15:10;;;;;;;6.90;1.65;;;;;;;;;;5094280;28;20020;-80
2022/08/20 12:17:37;;;;;;;8.20;1.50;;;;;;;;;;5094463;28;20047;-80
2022/08/20 12:20:06;;;;;;;12.77;1.60;;;;;;;;;;5094421;28;20091;-80
2022/08/20 12:22:32;;;;;;;11.68;1.85;;;;;;;;;;5093969;28;20066;-80
2022/08/20 12:24:58;;;;;;;7.40;1.50;;;;;;;;;;5094424;28;20032;-80
2022/08/20 12:27:26;;;;;;;6.40;1.30;;;;;;;;;;5092942;28;20027;-80
2022/08/20 12:29:54;;;;;;;4.60;1.35;;;;;;;;;;5094080;28;20439;-80
2022/08/20 12:32:21;;;;;;;9.20;1.90;;;;;;;;;;5075528;28;20028;-80
2022/08/20 12:34:47;;;;;;;6.70;1.60;;;;;;;;;;5094174;28;20034;-80
2022/08/20 12:37:15;;;;;;;6.82;1.38;;;;;;;;;;5093707;28;20382;-80
2022/08/20 12:39:42;;;;;;;9.45;1.58;;;;;;;;;;5094169;28;20024;-80
2022/08/20 12:42:09;;;;;;;6.47;1.42;;;;;;;;;;5093997;28;20032;-80
2022/08/20 12:44:36;;;;;;;7.43;1.65;;;;;;;;;;5093676;28;20020;-80
2022/08/20 12:47:25;;;;;;;9.60;1.48;;;;;;;;;;5082355;28;20131;-80
2022/08/20 12:49:53;;;;;;;7.80;1.67;;;;;;;;;;5062050;28;20036;-80
2022/08/20 12:52:20;;;;;;;8.45;1.60;;;;;;;;;;5055287;28;20407;-80
2022/08/20 12:54:46;;;;;;;8.73;1.67;;;;;;;;;;5073183;28;20016;-80
2022/08/20 12:57:14;;;;;;;12.85;1.73;;;;;;;;;;5072786;28;20059;-80
2022/08/20 12:59:40;;;;;;;8.82;1.50;;;;;;;;;;5071869;28;20120;-81
2022/08/20 13:02:06;;;;;;;10.02;1.38;;;;;;;;;;5073178;28;20025;-80
2022/08/20 13:04:32;;;;;;;6.03;1.40;;;;;;;;;;5072943;28;20025;-80
2022/08/20 13:07:02;;;;;;;7.53;1.40;;;;;;;;;;5072948;28;20067;-81
2022/08/20 13:09:28;;;;;;;7.05;1.27;;;;;;;;;;5073032;28;20016;-80
2022/08/20 13:11:54;;;;;;;9.50;1.63;;;;;;;;;;5073159;28;20025;-80
2022/08/20 13:14:20;;;;;;;8.20;1.50;;;;;;;;;;5073064;28;20028;-80
2022/08/20 13:16:46;;;;;;;9.63;1.90;;;;;;;;;;5072837;28;20048;-81
2022/08/20 13:19:12;;;;;;;9.70;1.63;;;;;;;;;;5073144;28;20028;-80
2022/08/20 13:21:38;;;;;;;9.93;1.67;;;;;;;;;;5073089;28;20039;-81
2022/08/20 13:24:04;;;;;;;7.15;1.60;;;;;;;;;;5080456;28;20021;-80
2022/08/20 13:26:30;;;;;;;6.95;1.70;;;;;;;;;;5093152;28;20495;-80
2022/08/20 13:28:56;;;;;;;5.10;1.30;;;;;;;;;;5093217;28;20070;-80
2022/08/20 13:31:22;;;;;;;10.77;1.52;;;;;;;;;;5093196;28;20478;-80
2022/08/20 13:33:48;;;;;;;7.60;1.40;;;;;;;;;;5092810;28;20036;-80
2022/08/20 13:36:14;;;;;;;7.22;1.60;;;;;;;;;;5092991;28;20024;-80
2022/08/20 13:38:40;;;;;;;9.85;2.03;;;;;;;;;;5091396;28;20452;-80
2022/08/20 13:41:06;;;;;;;5.43;1.50;;;;;;;;;;5093097;28;20031;-80
2022/08/20 13:43:32;;;;;;;5.72;1.40;;;;;;;;;;5093188;28;20020;-80
2022/08/20 13:45:58;;;;;;;8.73;1.70;;;;;;;;;;5092986;28;20051;-80
2022/08/20 13:48:24;;;;;;;7.00;1.88;;;;;;;;;;5092676;28;20031;-80
2022/08/20 13:50:50;;;;;;;8.82;2.00;;;;;;;;;;5091360;28;20026;-80
2022/08/20 13:53:16;;;;;;;9.07;1.92;;;;;;;;;;5092770;28;20027;-80
2022/08/20 13:55:44;;;;;;;11.77;2.20;;;;;;;;;;5092930;28;20058;-80
2022/08/20 13:58:10;;;;;;;9.25;1.90;;;;;;;;;;5109972;28;20134;-80
2022/08/20 14:00:36;;;;;;;8.57;2.03;;;;;;;;;;5112946;28;20444;-80
2022/08/20 14:03:03;;;;;;;8.20;1.83;;;;;;;;;;5112914;28;20409;-81
2022/08/20 14:05:30;;;;;;;12.50;2.10;;;;;;;;;;5112526;28;20098;-80
2022/08/20 14:08:03;;;;;;;11.90;2.33;;;;;;;;;;5112947;28;20121;-80
2022/08/20 14:10:31;;;;;;;9.90;2.33;;;;;;;;;;5112775;28;20035;-80
2022/08/20 14:12:58;;;;;;;9.18;2.45;;;;;;;;;;5112912;28;20073;-80
2022/08/20 14:15:24;;;;;;;9.30;1.98;;;;;;;;;;5094785;28;20041;-80
2022/08/20 14:17:52;;;;;;;11.05;2.20;;;;;;;;;;5112956;28;20099;-80
2022/08/20 14:20:20;;;;;;;6.78;1.95;;;;;;;;;;5112516;28;20042;-80
2022/08/20 14:22:46;;;;;;;11.10;2.00;;;;;;;;;;5112597;28;20051;-80
2022/08/20 14:25:13;;;;;;;8.82;2.50;;;;;;;;;;5112445;28;20055;-80
2022/08/20 14:27:39;;;;;;;12.00;2.10;;;;;;;;;;5094231;28;20122;-80
2022/08/20 14:30:06;;;;;;;12.85;2.42;;;;;;;;;;5112424;28;20019;-80
2022/08/20 14:32:32;;;;;;;12.65;2.05;;;;;;;;;;5112341;28;20059;-80
2022/08/20 14:35:00;;;;;;;7.75;1.67;;;;;;;;;;5112641;28;20032;-80
2022/08/20 14:37:29;;;;;;;7.13;1.70;;;;;;;;;;5112500;28;20469;-81